Terminal Aerodrome Forecast
Issued by NWS

Home | Current Version | Previous Version | Text Only | Print | Product List | Glossary On
Versions: 1 2 3 4 5 6 7 8 9 10 11 12 13 14 15 16 17
000
FTAK31 PAFA 192327
TAFAFA
TAF
PAFA 192327Z 2000/2106 35006KT P6SM VCSH FEW016 FEW035 BKN080
     FM200400 VRB03KT P6SM SCT080
     FM202200 04004KT P6SM SCT080=

USA.gov is the U.S. government's official web portal to all federal, state and local government web resources and services.